Time;durP1;ratioP1;P1;durP2;ratioP2;P2;SDS_P1;SDS_P2;PMS_P1;PMS_P2;Temp;Humidity;BMP_temperature;BMP_pressure;BME280_temperature;BME280_humidity;BME280_pressure;Samples;Min_cycle;Max_cycle;Signal;HPM_P1;HPM_P2
2020/12/26 00:01:37;;;;;;;17.60;6.80;;;;;;;;;;4407462;32;20153;-77
2020/12/26 00:04:03;;;;;;;14.37;5.83;;;;;;;;;;4421218;32;20165;-77
2020/12/26 00:06:29;;;;;;;10.17;5.67;;;;;;;;;;4421776;32;20138;-77
2020/12/26 00:08:54;;;;;;;10.90;5.33;;;;;;;;;;4422075;32;20428;-77
2020/12/26 00:11:20;;;;;;;8.33;5.03;;;;;;;;;;4407819;32;20272;-77
2020/12/26 00:13:51;;;;;;;9.77;5.33;;;;;;;;;;4407414;32;20200;-77
2020/12/26 00:16:17;;;;;;;12.20;5.23;;;;;;;;;;4421472;32;20183;-76
2020/12/26 00:18:43;;;;;;;11.00;4.53;;;;;;;;;;4421103;32;20595;-76
2020/12/26 00:21:09;;;;;;;7.27;3.30;;;;;;;;;;4422199;32;20160;-76
2020/12/26 00:23:34;;;;;;;8.47;3.63;;;;;;;;;;4421367;32;20142;-76
2020/12/26 00:26:00;;;;;;;6.10;2.90;;;;;;;;;;4421421;32;20440;-75
2020/12/26 00:28:25;;;;;;;4.27;2.10;;;;;;;;;;4421826;32;20157;-76
2020/12/26 00:30:50;;;;;;;4.10;1.80;;;;;;;;;;4420788;32;20508;-75
2020/12/26 00:33:15;;;;;;;4.43;1.80;;;;;;;;;;4420866;32;20168;-75
2020/12/26 00:35:42;;;;;;;2.70;1.57;;;;;;;;;;4421456;32;20145;-75
2020/12/26 00:38:07;;;;;;;4.67;2.07;;;;;;;;;;4421605;32;20193;-76
2020/12/26 00:40:33;;;;;;;3.80;1.77;;;;;;;;;;4420812;32;20160;-75
2020/12/26 00:42:58;;;;;;;4.20;1.80;;;;;;;;;;4421188;32;20150;-76
2020/12/26 00:45:23;;;;;;;3.63;2.07;;;;;;;;;;4407224;32;20165;-75
2020/12/26 00:47:48;;;;;;;4.33;2.10;;;;;;;;;;4421426;32;20184;-76
2020/12/26 00:50:14;;;;;;;6.13;2.60;;;;;;;;;;4421569;32;20212;-76
2020/12/26 00:52:39;;;;;;;6.33;2.83;;;;;;;;;;4420839;32;20164;-75
2020/12/26 00:55:04;;;;;;;4.80;2.60;;;;;;;;;;4421043;32;20142;-76
2020/12/26 00:57:32;;;;;;;4.80;2.60;;;;;;;;;;4420590;32;20170;-76
2020/12/26 00:59:57;;;;;;;4.73;2.60;;;;;;;;;;4421011;32;20146;-76
2020/12/26 01:02:23;;;;;;;7.47;2.70;;;;;;;;;;4420999;32;20164;-76
2020/12/26 01:04:48;;;;;;;6.33;2.40;;;;;;;;;;4421277;32;20138;-76
2020/12/26 01:07:13;;;;;;;4.70;2.30;;;;;;;;;;4420449;32;20433;-76
2020/12/26 01:09:39;;;;;;;5.50;2.33;;;;;;;;;;4420548;32;20698;-76
2020/12/26 01:12:04;;;;;;;5.00;2.43;;;;;;;;;;4420534;32;20175;-76
2020/12/26 01:14:29;;;;;;;5.87;2.43;;;;;;;;;;4421255;32;20516;-76
2020/12/26 01:16:54;;;;;;;4.57;2.67;;;;;;;;;;4420450;32;20134;-75
2020/12/26 01:19:19;;;;;;;6.30;2.83;;;;;;;;;;4420556;32;20185;-75
2020/12/26 01:21:51;;;;;;;3.57;2.30;;;;;;;;;;4420298;32;20138;-75
2020/12/26 01:24:20;;;;;;;5.63;2.70;;;;;;;;;;4406419;32;20274;-75
2020/12/26 01:26:48;;;;;;;5.47;2.23;;;;;;;;;;4420870;32;20202;-76
2020/12/26 01:29:14;;;;;;;6.97;2.40;;;;;;;;;;4420838;32;20537;-76
2020/12/26 01:31:40;;;;;;;6.43;2.30;;;;;;;;;;4406464;32;20216;-75
2020/12/26 01:34:05;;;;;;;8.43;1.87;;;;;;;;;;4420079;32;20173;-76
2020/12/26 01:36:30;;;;;;;4.77;2.43;;;;;;;;;;4421180;32;20134;-76
2020/12/26 01:38:56;;;;;;;4.87;2.07;;;;;;;;;;4420365;32;20197;-76
2020/12/26 01:41:21;;;;;;;5.93;2.17;;;;;;;;;;4421418;32;20492;-75
2020/12/26 01:44:00;;;;;;;6.63;2.70;;;;;;;;;;4407494;32;20173;-75
2020/12/26 01:46:29;;;;;;;6.33;2.17;;;;;;;;;;4431180;32;20150;-76
2020/12/26 01:48:56;;;;;;;6.10;2.27;;;;;;;;;;4435933;32;20199;-76
2020/12/26 01:51:23;;;;;;;8.10;1.90;;;;;;;;;;4435439;32;20133;-76
2020/12/26 01:53:48;;;;;;;6.53;1.97;;;;;;;;;;4435577;32;20492;-76
2020/12/26 01:56:14;;;;;;;12.97;2.10;;;;;;;;;;4436979;32;20134;-75
2020/12/26 01:58:41;;;;;;;4.17;1.90;;;;;;;;;;4435374;32;20295;-77
2020/12/26 02:01:06;;;;;;;7.20;2.03;;;;;;;;;;4435587;32;20145;-76
2020/12/26 02:03:31;;;;;;;5.73;1.70;;;;;;;;;;4435544;32;20167;-77
2020/12/26 02:05:57;;;;;;;7.23;1.80;;;;;;;;;;4435381;32;20473;-76
2020/12/26 02:08:25;;;;;;;3.27;1.60;;;;;;;;;;4435560;32;20149;-77
2020/12/26 02:10:50;;;;;;;6.30;1.60;;;;;;;;;;4435738;32;20521;-77
2020/12/26 02:13:15;;;;;;;5.07;1.57;;;;;;;;;;4435981;32;20134;-77
2020/12/26 02:15:41;;;;;;;4.93;1.30;;;;;;;;;;4435994;32;20133;-77
2020/12/26 02:18:06;;;;;;;2.83;1.50;;;;;;;;;;4421692;32;20138;-77
2020/12/26 02:20:31;;;;;;;5.97;1.33;;;;;;;;;;4420295;32;20161;-77
2020/12/26 02:22:57;;;;;;;4.30;1.23;;;;;;;;;;4420648;32;20142;-77
2020/12/26 02:25:22;;;;;;;4.77;1.50;;;;;;;;;;4420850;32;20165;-77
2020/12/26 02:27:47;;;;;;;4.53;1.20;;;;;;;;;;4422911;32;20190;-77
2020/12/26 02:30:13;;;;;;;5.10;1.00;;;;;;;;;;4423022;32;20138;-77
2020/12/26 02:32:38;;;;;;;4.30;1.23;;;;;;;;;;4422725;32;20149;-77
2020/12/26 02:35:04;;;;;;;7.10;1.40;;;;;;;;;;4422666;32;20150;-76
2020/12/26 02:37:31;;;;;;;2.97;1.10;;;;;;;;;;4423703;32;20472;-77
2020/12/26 02:39:57;;;;;;;7.27;1.40;;;;;;;;;;4422909;32;20454;-77
2020/12/26 02:42:22;;;;;;;5.00;1.30;;;;;;;;;;4422884;32;20159;-77
2020/12/26 02:44:47;;;;;;;7.93;1.73;;;;;;;;;;4423167;32;20162;-77
2020/12/26 02:47:13;;;;;;;7.27;1.40;;;;;;;;;;4408524;32;20189;-77
2020/12/26 02:49:38;;;;;;;4.83;1.30;;;;;;;;;;4409391;32;20157;-77
2020/12/26 02:52:03;;;;;;;3.53;1.40;;;;;;;;;;4425890;32;20500;-77
2020/12/26 02:54:28;;;;;;;4.37;1.50;;;;;;;;;;4437822;32;20505;-77
2020/12/26 02:56:54;;;;;;;2.20;1.37;;;;;;;;;;4438079;32;20163;-77
2020/12/26 02:59:19;;;;;;;3.07;1.40;;;;;;;;;;4438164;32;20161;-77
2020/12/26 03:01:44;;;;;;;3.00;1.43;;;;;;;;;;4437690;32;20145;-77
2020/12/26 03:04:10;;;;;;;6.63;1.30;;;;;;;;;;4438873;32;20181;-77
2020/12/26 03:06:35;;;;;;;4.07;1.67;;;;;;;;;;4438117;32;20210;-77
2020/12/26 03:09:00;;;;;;;3.40;1.50;;;;;;;;;;4438524;32;20590;-77
2020/12/26 03:11:25;;;;;;;3.87;1.37;;;;;;;;;;4437973;32;20206;-77
2020/12/26 03:13:51;;;;;;;7.40;1.90;;;;;;;;;;4438276;32;20189;-77
2020/12/26 03:16:17;;;;;;;7.10;2.07;;;;;;;;;;4437735;32;20160;-77
2020/12/26 03:18:45;;;;;;;5.73;1.53;;;;;;;;;;4437624;32;20592;-77
2020/12/26 03:21:11;;;;;;;3.83;1.80;;;;;;;;;;4437354;32;20153;-77
2020/12/26 03:23:36;;;;;;;5.87;2.23;;;;;;;;;;4423385;32;20189;-78
2020/12/26 03:26:01;;;;;;;6.80;1.33;;;;;;;;;;4423414;32;20165;-78
2020/12/26 03:28:27;;;;;;;6.77;1.63;;;;;;;;;;4437826;32;20188;-77
2020/12/26 03:30:52;;;;;;;10.40;1.87;;;;;;;;;;4437585;32;20164;-78
2020/12/26 03:33:17;;;;;;;5.97;1.57;;;;;;;;;;4437270;32;20186;-78
2020/12/26 03:35:42;;;;;;;5.33;1.60;;;;;;;;;;4437199;32;20167;-78
2020/12/26 03:38:08;;;;;;;4.10;1.20;;;;;;;;;;4437364;32;20157;-78
2020/12/26 03:40:33;;;;;;;8.93;1.57;;;;;;;;;;4438363;32;20507;-78
2020/12/26 03:42:58;;;;;;;4.50;1.50;;;;;;;;;;4437052;32;20146;-78
2020/12/26 03:45:23;;;;;;;4.50;1.30;;;;;;;;;;4437098;32;20164;-78
2020/12/26 03:47:49;;;;;;;5.60;1.50;;;;;;;;;;4422940;32;20164;-78
2020/12/26 03:50:17;;;;;;;5.53;1.57;;;;;;;;;;4437645;32;20141;-78
2020/12/26 03:52:42;;;;;;;7.03;1.30;;;;;;;;;;4437545;32;20165;-78
2020/12/26 03:55:08;;;;;;;4.40;1.50;;;;;;;;;;4437481;32;20168;-78
2020/12/26 03:57:35;;;;;;;5.83;1.50;;;;;;;;;;4436957;32;20141;-78
2020/12/26 04:00:01;;;;;;;4.33;1.40;;;;;;;;;;4422909;32;20235;-78
2020/12/26 04:02:26;;;;;;;4.97;1.40;;;;;;;;;;4423367;32;20169;-78
2020/12/26 04:04:51;;;;;;;6.03;1.20;;;;;;;;;;4422811;32;20181;-78
2020/12/26 04:07:16;;;;;;;4.63;1.40;;;;;;;;;;4436977;32;20138;-78
2020/12/26 04:09:41;;;;;;;3.70;1.10;;;;;;;;;;4422801;32;20178;-78
2020/12/26 04:12:09;;;;;;;5.47;1.33;;;;;;;;;;4436705;32;20185;-78
2020/12/26 04:14:35;;;;;;;2.93;1.10;;;;;;;;;;4437557;32;20207;-78
2020/12/26 04:17:00;;;;;;;3.57;1.10;;;;;;;;;;4436480;32;20161;-78
2020/12/26 04:19:26;;;;;;;4.00;1.20;;;;;;;;;;4437244;32;20205;-78
2020/12/26 04:21:51;;;;;;;4.57;1.40;;;;;;;;;;4437268;32;20167;-78
2020/12/26 04:24:19;;;;;;;3.33;1.10;;;;;;;;;;4422393;32;20203;-78
2020/12/26 04:26:44;;;;;;;4.40;1.00;;;;;;;;;;4423162;32;20191;-77
2020/12/26 04:29:12;;;;;;;4.03;1.10;;;;;;;;;;4437019;32;20169;-78
2020/12/26 04:31:37;;;;;;;5.50;1.63;;;;;;;;;;4422252;32;20188;-78
2020/12/26 04:34:02;;;;;;;5.23;1.53;;;;;;;;;;4422773;32;20180;-78
2020/12/26 04:36:28;;;;;;;4.20;1.20;;;;;;;;;;4436286;32;20137;-78
2020/12/26 04:38:53;;;;;;;3.97;1.20;;;;;;;;;;4436284;32;20142;-78
2020/12/26 04:41:19;;;;;;;5.67;1.47;;;;;;;;;;4423143;32;20181;-78
2020/12/26 04:43:44;;;;;;;6.63;1.40;;;;;;;;;;4437168;32;20438;-78
2020/12/26 04:46:13;;;;;;;5.63;1.60;;;;;;;;;;4436115;32;20215;-78
2020/12/26 04:48:43;;;;;;;3.87;1.13;;;;;;;;;;4435399;32;20184;-78
2020/12/26 04:51:09;;;;;;;7.17;1.07;;;;;;;;;;4436726;32;20156;-78
2020/12/26 04:53:38;;;;;;;7.53;1.47;;;;;;;;;;4436123;32;20148;-77
2020/12/26 04:56:03;;;;;;;4.97;1.20;;;;;;;;;;4436727;32;20210;-77
2020/12/26 04:58:31;;;;;;;4.13;1.23;;;;;;;;;;4436624;32;20141;-77
2020/12/26 05:00:57;;;;;;;5.90;1.10;;;;;;;;;;4422571;32;20166;-77
2020/12/26 05:03:25;;;;;;;4.20;1.17;;;;;;;;;;4435837;32;20503;-77
2020/12/26 05:05:51;;;;;;;3.23;1.20;;;;;;;;;;4435935;32;20169;-78
2020/12/26 05:08:16;;;;;;;7.77;1.30;;;;;;;;;;4436444;32;20163;-78
2020/12/26 05:10:42;;;;;;;3.33;1.03;;;;;;;;;;4436687;32;20577;-77
2020/12/26 05:13:14;;;;;;;7.67;1.33;;;;;;;;;;4435840;32;20201;-77
2020/12/26 05:15:39;;;;;;;2.87;1.00;;;;;;;;;;4436091;32;20213;-78
2020/12/26 05:18:05;;;;;;;4.60;1.00;;;;;;;;;;4436310;32;20527;-78
2020/12/26 05:20:31;;;;;;;5.47;1.20;;;;;;;;;;4422204;32;20521;-78
2020/12/26 05:23:05;;;;;;;3.47;1.27;;;;;;;;;;4436371;32;20141;-78
2020/12/26 05:25:30;;;;;;;6.83;1.30;;;;;;;;;;4436099;32;20240;-78
2020/12/26 05:28:06;;;;;;;3.87;1.17;;;;;;;;;;4436198;32;20146;-78
2020/12/26 05:30:33;;;;;;;3.33;1.07;;;;;;;;;;4436330;32;20137;-78
2020/12/26 05:33:00;;;;;;;6.63;1.30;;;;;;;;;;4435686;32;20148;-78
2020/12/26 05:35:33;;;;;;;6.00;1.47;;;;;;;;;;4422257;32;20173;-78
2020/12/26 05:38:09;;;;;;;5.47;2.00;;;;;;;;;;4436196;32;20210;-77
2020/12/26 05:40:40;;;;;;;9.80;2.80;;;;;;;;;;4435905;32;20141;-77
2020/12/26 05:43:06;;;;;;;13.07;2.70;;;;;;;;;;4436307;32;20145;-77
2020/12/26 05:45:37;;;;;;;7.47;1.83;;;;;;;;;;4436240;32;20163;-76
2020/12/26 05:48:06;;;;;;;6.57;1.60;;;;;;;;;;4435691;32;20157;-77
2020/12/26 05:50:32;;;;;;;5.43;1.50;;;;;;;;;;4435417;32;20584;-77
2020/12/26 05:52:58;;;;;;;5.00;1.50;;;;;;;;;;4435417;32;20146;-77
2020/12/26 05:55:24;;;;;;;3.80;1.50;;;;;;;;;;4435902;32;20133;-77
2020/12/26 05:57:53;;;;;;;3.63;1.13;;;;;;;;;;4435862;32;20536;-76
2020/12/26 06:00:29;;;;;;;6.10;1.33;;;;;;;;;;4437234;32;20225;-77
2020/12/26 06:02:54;;;;;;;5.53;2.23;;;;;;;;;;4439035;32;20542;-77
2020/12/26 06:05:20;;;;;;;8.13;1.70;;;;;;;;;;4439396;32;20191;-77
2020/12/26 06:07:45;;;;;;;6.83;1.27;;;;;;;;;;4438953;32;20146;-77
2020/12/26 06:10:11;;;;;;;9.57;1.50;;;;;;;;;;4438402;32;20164;-77
2020/12/26 06:12:36;;;;;;;3.03;1.10;;;;;;;;;;4438958;32;20133;-77
2020/12/26 06:15:02;;;;;;;5.77;1.37;;;;;;;;;;4438871;32;20141;-76
2020/12/26 06:17:29;;;;;;;8.00;1.50;;;;;;;;;;4438305;32;20168;-77
2020/12/26 06:20:12;;;;;;;5.17;1.53;;;;;;;;;;4438268;32;20574;-77
2020/12/26 06:22:45;;;;;;;1.83;1.17;;;;;;;;;;4439335;32;20163;-77
2020/12/26 06:25:12;;;;;;;4.60;1.70;;;;;;;;;;4438844;32;20164;-76
2020/12/26 06:27:43;;;;;;;5.70;1.40;;;;;;;;;;4438706;32;20142;-77
2020/12/26 06:30:08;;;;;;;2.77;1.03;;;;;;;;;;4438613;32;20138;-76
2020/12/26 06:32:34;;;;;;;4.57;1.47;;;;;;;;;;4438423;32;20207;-76
2020/12/26 06:35:00;;;;;;;5.23;1.60;;;;;;;;;;4424217;32;20168;-76
2020/12/26 06:37:25;;;;;;;3.73;1.43;;;;;;;;;;4438095;32;20138;-76
2020/12/26 06:39:50;;;;;;;6.17;1.50;;;;;;;;;;4438105;32;20615;-77
2020/12/26 06:42:19;;;;;;;6.00;1.40;;;;;;;;;;4438334;32;20260;-77
2020/12/26 06:44:45;;;;;;;4.90;1.50;;;;;;;;;;4438528;32;20149;-76
2020/12/26 06:47:32;;;;;;;6.70;1.40;;;;;;;;;;4424099;32;20679;-77
2020/12/26 06:50:18;;;;;;;4.13;1.50;;;;;;;;;;4437917;32;20161;-77
2020/12/26 06:52:49;;;;;;;3.90;1.47;;;;;;;;;;4438224;32;20191;-77
2020/12/26 06:55:33;;;;;;;4.73;1.50;;;;;;;;;;4438895;32;20271;-77
2020/12/26 06:58:01;;;;;;;4.77;1.60;;;;;;;;;;4437791;32;20164;-77
2020/12/26 07:00:27;;;;;;;5.70;1.50;;;;;;;;;;4437823;32;20164;-76
2020/12/26 07:03:11;;;;;;;4.77;1.87;;;;;;;;;;4437700;32;20137;-76
2020/12/26 07:05:37;;;;;;;3.93;1.60;;;;;;;;;;4438018;32;20152;-76
2020/12/26 07:08:03;;;;;;;3.77;1.47;;;;;;;;;;4437566;32;20304;-76
2020/12/26 07:10:34;;;;;;;4.53;1.70;;;;;;;;;;4438051;32;20199;-77
2020/12/26 07:13:00;;;;;;;5.10;2.10;;;;;;;;;;4436983;32;20416;-77
2020/12/26 07:15:32;;;;;;;6.47;1.80;;;;;;;;;;4437611;32;20190;-76
2020/12/26 07:18:17;;;;;;;7.80;2.00;;;;;;;;;;4423871;32;20188;-77
2020/12/26 07:20:48;;;;;;;7.87;2.07;;;;;;;;;;4438006;32;20546;-77
2020/12/26 07:23:13;;;;;;;7.93;2.57;;;;;;;;;;4438109;32;20168;-76
2020/12/26 07:25:38;;;;;;;8.17;3.27;;;;;;;;;;4438151;32;20141;-76
2020/12/26 07:28:03;;;;;;;7.40;3.00;;;;;;;;;;4422989;32;20227;-77
2020/12/26 07:30:31;;;;;;;7.27;2.77;;;;;;;;;;4437331;32;20138;-77
2020/12/26 07:32:57;;;;;;;5.07;2.37;;;;;;;;;;4437406;32;20502;-76
2020/12/26 07:35:23;;;;;;;5.00;2.30;;;;;;;;;;4437303;32;20141;-77
2020/12/26 07:37:51;;;;;;;11.60;3.10;;;;;;;;;;4437725;32;20168;-76
2020/12/26 07:40:20;;;;;;;8.90;3.10;;;;;;;;;;4437517;32;20198;-76
2020/12/26 07:42:46;;;;;;;6.63;2.87;;;;;;;;;;4437460;32;20145;-76
2020/12/26 07:45:12;;;;;;;5.80;3.40;;;;;;;;;;4437115;32;20153;-76
2020/12/26 07:47:42;;;;;;;8.27;3.97;;;;;;;;;;4437036;32;20183;-76
2020/12/26 07:50:08;;;;;;;9.90;4.00;;;;;;;;;;4437112;32;20137;-76
2020/12/26 07:52:36;;;;;;;8.83;4.00;;;;;;;;;;4437368;32;20549;-76
2020/12/26 07:55:07;;;;;;;9.33;3.97;;;;;;;;;;4437042;32;20171;-76
2020/12/26 07:57:36;;;;;;;10.10;4.50;;;;;;;;;;4437319;32;20130;-76
2020/12/26 08:00:02;;;;;;;6.93;4.20;;;;;;;;;;4437602;32;20221;-76
2020/12/26 08:02:28;;;;;;;6.30;4.20;;;;;;;;;;4437142;32;20145;-76
2020/12/26 08:04:55;;;;;;;12.13;4.23;;;;;;;;;;4436873;32;20538;-75
2020/12/26 08:07:24;;;;;;;6.57;4.30;;;;;;;;;;4437435;32;20165;-76
2020/12/26 08:09:49;;;;;;;11.20;4.60;;;;;;;;;;4436855;32;20141;-76
2020/12/26 08:12:20;;;;;;;7.27;4.10;;;;;;;;;;4436727;32;20441;-76
2020/12/26 08:14:56;;;;;;;7.93;4.23;;;;;;;;;;4437140;32;20172;-76
2020/12/26 08:17:24;;;;;;;10.43;4.30;;;;;;;;;;4437113;32;20164;-76
2020/12/26 08:19:56;;;;;;;7.60;4.30;;;;;;;;;;4436915;32;20502;-76
2020/12/26 08:22:27;;;;;;;6.13;4.10;;;;;;;;;;4436283;32;20172;-76
2020/12/26 08:25:05;;;;;;;6.77;4.43;;;;;;;;;;4436545;32;20198;-76
2020/12/26 08:27:31;;;;;;;9.73;4.43;;;;;;;;;;4436681;32;20465;-77
2020/12/26 08:30:04;;;;;;;11.40;4.17;;;;;;;;;;4436464;32;20161;-76
2020/12/26 08:32:35;;;;;;;8.77;4.47;;;;;;;;;;4437469;32;20168;-77
2020/12/26 08:35:08;;;;;;;8.20;4.20;;;;;;;;;;4436764;32;20233;-76
2020/12/26 08:37:41;;;;;;;8.13;4.17;;;;;;;;;;4436793;32;20146;-76
2020/12/26 08:40:10;;;;;;;12.20;5.50;;;;;;;;;;4436559;32;20495;-75
2020/12/26 08:42:36;;;;;;;7.50;4.27;;;;;;;;;;4437021;32;20149;-77
2020/12/26 08:45:01;;;;;;;7.57;4.00;;;;;;;;;;4437624;32;20503;-77
2020/12/26 08:47:30;;;;;;;8.30;3.70;;;;;;;;;;4436522;32;20479;-76
2020/12/26 08:49:56;;;;;;;5.93;3.70;;;;;;;;;;4436361;32;20220;-76
2020/12/26 08:52:22;;;;;;;7.07;3.40;;;;;;;;;;4436521;32;20516;-76
2020/12/26 08:54:59;;;;;;;10.87;4.30;;;;;;;;;;4436674;32;20142;-76
2020/12/26 08:57:24;;;;;;;8.73;3.90;;;;;;;;;;4435384;32;20149;-75
2020/12/26 08:59:49;;;;;;;11.33;3.67;;;;;;;;;;4421326;32;20716;-75
2020/12/26 09:02:14;;;;;;;7.30;3.63;;;;;;;;;;4421445;32;20129;-76
2020/12/26 09:04:39;;;;;;;4.63;3.53;;;;;;;;;;4435888;32;20206;-76
2020/12/26 09:07:18;;;;;;;7.67;3.33;;;;;;;;;;4436111;32;20619;-75
2020/12/26 09:09:44;;;;;;;8.90;3.90;;;;;;;;;;4420959;32;20150;-76
2020/12/26 09:12:13;;;;;;;9.00;3.10;;;;;;;;;;4420734;32;20609;-76
2020/12/26 09:14:38;;;;;;;8.17;3.33;;;;;;;;;;4420580;32;20157;-75
2020/12/26 09:17:05;;;;;;;5.00;3.00;;;;;;;;;;4425307;32;20145;-76
2020/12/26 09:19:43;;;;;;;5.87;2.87;;;;;;;;;;4435798;32;20224;-76
2020/12/26 09:22:09;;;;;;;5.83;3.20;;;;;;;;;;4429164;32;20171;-76
2020/12/26 09:24:34;;;;;;;6.90;2.93;;;;;;;;;;4429572;32;20164;-72
2020/12/26 09:27:00;;;;;;;4.50;2.57;;;;;;;;;;4426348;32;20208;-77
2020/12/26 09:29:25;;;;;;;4.67;2.60;;;;;;;;;;4421900;32;20146;-75
2020/12/26 09:31:51;;;;;;;6.20;2.73;;;;;;;;;;4430139;32;20215;-75
2020/12/26 09:34:24;;;;;;;9.33;3.13;;;;;;;;;;4435455;32;20172;-76
2020/12/26 09:37:02;;;;;;;5.80;2.60;;;;;;;;;;4435675;32;20176;-77
2020/12/26 09:39:27;;;;;;;8.50;2.60;;;;;;;;;;4436788;32;20156;-75
2020/12/26 09:41:53;;;;;;;9.37;2.60;;;;;;;;;;4435590;32;20188;-77
2020/12/26 09:44:18;;;;;;;8.67;2.70;;;;;;;;;;4433607;32;20161;-75
2020/12/26 09:46:43;;;;;;;6.33;2.27;;;;;;;;;;4423214;32;20141;-75
2020/12/26 09:49:09;;;;;;;8.23;2.73;;;;;;;;;;4420068;32;20158;-75
2020/12/26 09:51:34;;;;;;;5.60;2.47;;;;;;;;;;4419891;32;20202;-76
2020/12/26 09:53:59;;;;;;;7.70;2.50;;;;;;;;;;4426023;32;20674;-77
2020/12/26 09:56:26;;;;;;;5.23;2.37;;;;;;;;;;4435573;32;20442;-75
2020/12/26 09:58:51;;;;;;;5.03;2.47;;;;;;;;;;4435761;32;20194;-75
2020/12/26 10:01:22;;;;;;;4.40;2.23;;;;;;;;;;4421222;32;20165;-88
2020/12/26 10:03:54;;;;;;;6.63;2.13;;;;;;;;;;4436377;32;20188;-87
2020/12/26 10:06:33;;;;;;;7.77;2.40;;;;;;;;;;4436255;32;20129;-84
2020/12/26 10:09:03;;;;;;;5.90;2.27;;;;;;;;;;4419826;32;20528;-84
2020/12/26 10:11:29;;;;;;;5.00;2.43;;;;;;;;;;4435054;32;20137;-84
2020/12/26 10:14:09;;;;;;;5.93;2.60;;;;;;;;;;4421229;32;20187;-83
2020/12/26 10:16:38;;;;;;;6.27;2.40;;;;;;;;;;4421166;32;20222;-84
2020/12/26 10:19:05;;;;;;;9.20;3.10;;;;;;;;;;4421912;32;20170;-83
2020/12/26 10:21:31;;;;;;;4.67;2.20;;;;;;;;;;4421851;32;20196;-84
2020/12/26 10:23:56;;;;;;;6.43;2.20;;;;;;;;;;4421717;32;20458;-84
2020/12/26 10:26:27;;;;;;;5.13;2.23;;;;;;;;;;4421143;32;20744;-84
2020/12/26 10:28:52;;;;;;;6.30;2.77;;;;;;;;;;4421591;32;20169;-85
2020/12/26 10:31:17;;;;;;;8.00;2.97;;;;;;;;;;4409170;32;20195;-85
2020/12/26 10:33:43;;;;;;;5.57;2.87;;;;;;;;;;4420780;32;20184;-85
2020/12/26 10:36:08;;;;;;;6.40;2.40;;;;;;;;;;4421280;32;20216;-84
2020/12/26 10:38:33;;;;;;;5.53;2.70;;;;;;;;;;4421344;32;20165;-85
2020/12/26 10:40:59;;;;;;;5.97;2.57;;;;;;;;;;4421350;32;20218;-82
2020/12/26 10:43:24;;;;;;;6.67;2.97;;;;;;;;;;4421040;32;20263;-85
2020/12/26 10:45:49;;;;;;;6.57;2.60;;;;;;;;;;4420971;32;20162;-85
2020/12/26 10:48:15;;;;;;;8.10;2.97;;;;;;;;;;4423726;32;20178;-85
2020/12/26 10:50:43;;;;;;;6.57;2.87;;;;;;;;;;4424341;32;20208;-85
2020/12/26 10:53:22;;;;;;;8.23;3.57;;;;;;;;;;4424033;32;20161;-85
2020/12/26 10:55:47;;;;;;;7.23;3.10;;;;;;;;;;4424727;32;20169;-85
2020/12/26 10:58:15;;;;;;;9.27;2.90;;;;;;;;;;4423848;32;20161;-84
2020/12/26 11:00:43;;;;;;;7.03;3.10;;;;;;;;;;4423607;32;20598;-84
2020/12/26 11:03:13;;;;;;;8.17;3.43;;;;;;;;;;4424105;32;20602;-84
2020/12/26 11:05:39;;;;;;;5.33;3.17;;;;;;;;;;4412391;32;20161;-84
2020/12/26 11:08:07;;;;;;;6.13;3.10;;;;;;;;;;4408963;32;20235;-84
2020/12/26 11:10:32;;;;;;;11.50;3.10;;;;;;;;;;4408766;32;20486;-84
2020/12/26 11:12:57;;;;;;;7.50;3.17;;;;;;;;;;4421546;32;20165;-85
2020/12/26 11:15:25;;;;;;;9.60;3.27;;;;;;;;;;4424145;32;20188;-85
2020/12/26 11:17:50;;;;;;;9.83;3.87;;;;;;;;;;4411253;32;20202;-85
2020/12/26 11:20:16;;;;;;;8.10;3.13;;;;;;;;;;4408213;32;20237;-83
2020/12/26 11:22:46;;;;;;;6.20;3.50;;;;;;;;;;4412986;32;20635;-83
2020/12/26 11:25:12;;;;;;;6.13;3.30;;;;;;;;;;4423585;32;20200;-85
2020/12/26 11:27:37;;;;;;;8.33;3.50;;;;;;;;;;4423263;32;20233;-84
2020/12/26 11:30:02;;;;;;;4.33;2.90;;;;;;;;;;4423444;32;20187;-85
2020/12/26 11:32:29;;;;;;;10.37;3.23;;;;;;;;;;4423229;32;20265;-86
2020/12/26 11:34:57;;;;;;;7.20;2.83;;;;;;;;;;4423288;32;20200;-83
2020/12/26 11:37:23;;;;;;;8.07;2.80;;;;;;;;;;4422756;32;20165;-84
2020/12/26 11:39:48;;;;;;;8.73;3.37;;;;;;;;;;4422886;32;20625;-85
2020/12/26 11:42:13;;;;;;;5.63;3.20;;;;;;;;;;4423207;32;20188;-84
2020/12/26 11:44:40;;;;;;;6.97;3.13;;;;;;;;;;4423245;32;20192;-84
2020/12/26 11:47:11;;;;;;;5.00;3.03;;;;;;;;;;4423381;32;20165;-84
2020/12/26 11:49:36;;;;;;;6.20;3.20;;;;;;;;;;4423207;32;20528;-85
2020/12/26 11:52:02;;;;;;;7.60;3.30;;;;;;;;;;4437662;32;20141;-84
2020/12/26 11:54:38;;;;;;;6.90;3.43;;;;;;;;;;4423354;32;20259;-85
2020/12/26 11:57:07;;;;;;;7.13;3.70;;;;;;;;;;4430011;32;20177;-83
2020/12/26 11:59:37;;;;;;;8.23;3.63;;;;;;;;;;4434124;32;20165;-83
2020/12/26 12:02:03;;;;;;;7.13;3.40;;;;;;;;;;4432592;32;20199;-83
2020/12/26 12:04:28;;;;;;;7.40;3.60;;;;;;;;;;4430687;32;20169;-85
2020/12/26 12:06:54;;;;;;;6.30;3.67;;;;;;;;;;4441375;32;20146;-84
2020/12/26 12:09:19;;;;;;;8.17;4.53;;;;;;;;;;4425381;32;20160;-85
2020/12/26 12:11:47;;;;;;;6.83;3.20;;;;;;;;;;4422652;32;20267;-85
2020/12/26 12:14:15;;;;;;;8.17;3.90;;;;;;;;;;4422662;32;20513;-85
2020/12/26 12:16:49;;;;;;;7.60;3.33;;;;;;;;;;4422929;32;20646;-84
2020/12/26 12:19:15;;;;;;;4.47;3.30;;;;;;;;;;4423134;32;20225;-84
2020/12/26 12:21:43;;;;;;;7.40;3.80;;;;;;;;;;4422791;32;20204;-85
2020/12/26 12:24:12;;;;;;;8.80;3.50;;;;;;;;;;4422862;32;20246;-85
2020/12/26 12:26:40;;;;;;;4.87;3.33;;;;;;;;;;4423112;32;20161;-84
2020/12/26 12:29:05;;;;;;;6.87;3.40;;;;;;;;;;4422672;32;20212;-85
2020/12/26 12:31:35;;;;;;;7.47;3.37;;;;;;;;;;4410680;32;20212;-86
2020/12/26 12:34:01;;;;;;;11.50;4.30;;;;;;;;;;4423003;32;20200;-85
2020/12/26 12:36:26;;;;;;;7.33;3.67;;;;;;;;;;4422198;32;20286;-84
2020/12/26 12:38:51;;;;;;;7.57;3.70;;;;;;;;;;4429218;32;20215;-83
2020/12/26 12:41:19;;;;;;;7.60;3.43;;;;;;;;;;4423557;32;20570;-85
2020/12/26 12:43:45;;;;;;;11.40;4.87;;;;;;;;;;4422351;32;20173;-85
2020/12/26 12:46:20;;;;;;;10.30;4.40;;;;;;;;;;4437168;32;20122;-85
2020/12/26 12:48:48;;;;;;;9.73;4.80;;;;;;;;;;4422346;32;20610;-84
2020/12/26 12:51:25;;;;;;;9.47;5.10;;;;;;;;;;4435984;32;20136;-84
2020/12/26 12:53:50;;;;;;;12.63;5.53;;;;;;;;;;4422364;32;20610;-83
2020/12/26 12:56:16;;;;;;;8.00;4.87;;;;;;;;;;4421996;32;20183;-83
2020/12/26 12:58:41;;;;;;;11.87;6.23;;;;;;;;;;4422243;32;20220;-84
2020/12/26 13:01:07;;;;;;;12.73;6.23;;;;;;;;;;4421797;32;20190;-84
2020/12/26 13:03:35;;;;;;;10.83;5.33;;;;;;;;;;4409406;32;20459;-87
2020/12/26 13:06:01;;;;;;;12.20;6.13;;;;;;;;;;4421945;32;20558;-85
2020/12/26 13:08:26;;;;;;;12.90;6.20;;;;;;;;;;4421964;32;20216;-85
2020/12/26 13:10:54;;;;;;;12.93;5.43;;;;;;;;;;4421597;32;20177;-84
2020/12/26 13:13:29;;;;;;;10.37;5.53;;;;;;;;;;4422647;32;20177;-85
2020/12/26 13:15:54;;;;;;;9.60;5.33;;;;;;;;;;4421968;32;20214;-83
2020/12/26 13:18:19;;;;;;;9.97;5.70;;;;;;;;;;4422818;32;20180;-83
2020/12/26 13:20:50;;;;;;;11.00;5.87;;;;;;;;;;4438289;32;20141;-82
2020/12/26 13:23:15;;;;;;;6.73;4.40;;;;;;;;;;4422203;32;20667;-82
2020/12/26 13:25:40;;;;;;;9.87;4.63;;;;;;;;;;4421889;32;20224;-81
2020/12/26 13:28:06;;;;;;;10.00;5.20;;;;;;;;;;4408848;32;20517;-81
2020/12/26 13:30:44;;;;;;;7.50;4.50;;;;;;;;;;4421618;32;20164;-81
2020/12/26 13:33:09;;;;;;;8.33;4.50;;;;;;;;;;4421713;32;20187;-82
2020/12/26 13:35:35;;;;;;;12.20;5.17;;;;;;;;;;4421510;32;20169;-87
2020/12/26 13:38:02;;;;;;;7.30;5.27;;;;;;;;;;4422175;32;20236;-84
2020/12/26 13:40:27;;;;;;;11.40;5.47;;;;;;;;;;4422238;32;20216;-85
2020/12/26 13:42:53;;;;;;;13.93;5.57;;;;;;;;;;4421762;32;20165;-88
2020/12/26 13:45:19;;;;;;;9.30;4.90;;;;;;;;;;4436114;32;20165;-82
2020/12/26 13:47:44;;;;;;;10.60;5.40;;;;;;;;;;4408500;32;20221;-83
2020/12/26 13:50:10;;;;;;;9.53;5.37;;;;;;;;;;4421632;32;20216;-82
2020/12/26 13:52:35;;;;;;;9.50;4.77;;;;;;;;;;4421363;32;20491;-82
2020/12/26 13:55:00;;;;;;;10.27;5.10;;;;;;;;;;4421269;32;20258;-82
2020/12/26 13:57:25;;;;;;;7.20;4.93;;;;;;;;;;4421487;32;20455;-81
2020/12/26 13:59:51;;;;;;;10.27;5.90;;;;;;;;;;4421392;32;20195;-80
2020/12/26 14:02:16;;;;;;;13.83;5.87;;;;;;;;;;4421306;32;20165;-80
2020/12/26 14:04:43;;;;;;;11.50;6.57;;;;;;;;;;4421176;32;20223;-81
2020/12/26 14:07:08;;;;;;;11.00;6.37;;;;;;;;;;4421253;32;20213;-82
2020/12/26 14:09:36;;;;;;;11.80;7.23;;;;;;;;;;4421033;32;20161;-82
2020/12/26 14:12:02;;;;;;;12.97;8.63;;;;;;;;;;4421768;32;20212;-83
2020/12/26 14:14:28;;;;;;;16.63;8.57;;;;;;;;;;4420569;32;20586;-82
2020/12/26 14:16:59;;;;;;;14.40;8.97;;;;;;;;;;4421228;32;20655;-84
2020/12/26 14:19:24;;;;;;;15.90;9.60;;;;;;;;;;4421877;32;20553;-83
2020/12/26 14:21:51;;;;;;;19.20;11.80;;;;;;;;;;4437582;32;20161;-85
2020/12/26 14:24:21;;;;;;;17.77;11.50;;;;;;;;;;4438997;32;20150;-85
2020/12/26 14:26:46;;;;;;;21.90;13.03;;;;;;;;;;4426329;32;20161;-86
2020/12/26 14:29:12;;;;;;;25.17;13.77;;;;;;;;;;4425259;32;20226;-84
2020/12/26 14:31:37;;;;;;;21.27;13.40;;;;;;;;;;4424053;32;20165;-82
2020/12/26 14:34:02;;;;;;;21.77;12.87;;;;;;;;;;4423679;32;20218;-81
2020/12/26 14:36:27;;;;;;;22.80;14.90;;;;;;;;;;4424245;32;20218;-82
2020/12/26 14:38:53;;;;;;;25.03;13.83;;;;;;;;;;4423855;32;20197;-82
2020/12/26 14:41:18;;;;;;;21.77;13.20;;;;;;;;;;4424363;32;20165;-81